sensor_id;sensor_type;location;lat;lon;timestamp;P1;durP1;ratioP1;P2;durP2;ratioP2
9334;SDS011;4706;41.844;26.082;2023-04-03T00:02:04;5.97;;;5.03;;
9334;SDS011;4706;41.844;26.082;2023-04-03T00:04:30;5.22;;;4.72;;
9334;SDS011;4706;41.844;26.082;2023-04-03T00:06:55;6.32;;;5.00;;
9334;SDS011;4706;41.844;26.082;2023-04-03T00:09:21;5.70;;;4.20;;
9334;SDS011;4706;41.844;26.082;2023-04-03T00:11:46;4.85;;;4.28;;
9334;SDS011;4706;41.844;26.082;2023-04-03T00:14:12;4.93;;;4.45;;
9334;SDS011;4706;41.844;26.082;2023-04-03T00:16:37;5.85;;;4.50;;
9334;SDS011;4706;41.844;26.082;2023-04-03T00:19:02;5.63;;;4.32;;
9334;SDS011;4706;41.844;26.082;2023-04-03T00:21:28;4.90;;;4.28;;
9334;SDS011;4706;41.844;26.082;2023-04-03T00:23:54;6.15;;;5.20;;
9334;SDS011;4706;41.844;26.082;2023-04-03T00:26:19;6.65;;;5.57;;
9334;SDS011;4706;41.844;26.082;2023-04-03T00:28:45;6.63;;;4.78;;
9334;SDS011;4706;41.844;26.082;2023-04-03T00:31:13;4.95;;;4.40;;
9334;SDS011;4706;41.844;26.082;2023-04-03T00:33:40;8.15;;;5.70;;
9334;SDS011;4706;41.844;26.082;2023-04-03T00:36:06;7.03;;;5.53;;
9334;SDS011;4706;41.844;26.082;2023-04-03T00:38:36;7.10;;;5.28;;
9334;SDS011;4706;41.844;26.082;2023-04-03T00:41:01;7.53;;;5.22;;
9334;SDS011;4706;41.844;26.082;2023-04-03T00:43:27;11.63;;;6.97;;
9334;SDS011;4706;41.844;26.082;2023-04-03T00:45:54;10.35;;;6.80;;
9334;SDS011;4706;41.844;26.082;2023-04-03T00:51:01;9.57;;;6.40;;
9334;SDS011;4706;41.844;26.082;2023-04-03T00:53:30;8.23;;;5.90;;
9334;SDS011;4706;41.844;26.082;2023-04-03T00:56:00;5.70;;;5.10;;
9334;SDS011;4706;41.844;26.082;2023-04-03T00:58:28;6.53;;;5.85;;
9334;SDS011;4706;41.844;26.082;2023-04-03T01:01:00;8.75;;;5.10;;
9334;SDS011;4706;41.844;26.082;2023-04-03T01:03:30;9.82;;;5.07;;
9334;SDS011;4706;41.844;26.082;2023-04-03T01:05:56;8.70;;;6.35;;
9334;SDS011;4706;41.844;26.082;2023-04-03T01:08:22;10.38;;;6.30;;
9334;SDS011;4706;41.844;26.082;2023-04-03T01:10:48;9.40;;;6.28;;
9334;SDS011;4706;41.844;26.082;2023-04-03T01:13:28;8.38;;;5.80;;
9334;SDS011;4706;41.844;26.082;2023-04-03T01:15:55;7.18;;;5.57;;
9334;SDS011;4706;41.844;26.082;2023-04-03T01:18:22;8.52;;;6.20;;
9334;SDS011;4706;41.844;26.082;2023-04-03T01:23:40;12.45;;;7.95;;
9334;SDS011;4706;41.844;26.082;2023-04-03T01:26:07;12.63;;;7.65;;
9334;SDS011;4706;41.844;26.082;2023-04-03T01:28:35;10.27;;;7.50;;
9334;SDS011;4706;41.844;26.082;2023-04-03T01:33:45;10.38;;;7.07;;
9334;SDS011;4706;41.844;26.082;2023-04-03T01:36:16;9.38;;;7.07;;
9334;SDS011;4706;41.844;26.082;2023-04-03T01:38:43;10.02;;;8.65;;
9334;SDS011;4706;41.844;26.082;2023-04-03T01:41:09;16.55;;;14.95;;
9334;SDS011;4706;41.844;26.082;2023-04-03T01:43:35;17.38;;;15.93;;
9334;SDS011;4706;41.844;26.082;2023-04-03T01:46:00;17.63;;;15.65;;
9334;SDS011;4706;41.844;26.082;2023-04-03T01:48:26;15.60;;;14.00;;
9334;SDS011;4706;41.844;26.082;2023-04-03T01:50:51;17.67;;;15.25;;
9334;SDS011;4706;41.844;26.082;2023-04-03T01:53:17;15.45;;;13.63;;
9334;SDS011;4706;41.844;26.082;2023-04-03T01:55:42;17.27;;;14.88;;
9334;SDS011;4706;41.844;26.082;2023-04-03T01:58:07;19.17;;;17.10;;
9334;SDS011;4706;41.844;26.082;2023-04-03T02:00:33;21.13;;;18.95;;
9334;SDS011;4706;41.844;26.082;2023-04-03T02:02:58;25.45;;;23.15;;
9334;SDS011;4706;41.844;26.082;2023-04-03T02:05:24;29.80;;;27.25;;
9334;SDS011;4706;41.844;26.082;2023-04-03T02:07:50;23.63;;;21.17;;
9334;SDS011;4706;41.844;26.082;2023-04-03T02:10:15;21.65;;;18.08;;
9334;SDS011;4706;41.844;26.082;2023-04-03T02:12:41;23.88;;;18.38;;
9334;SDS011;4706;41.844;26.082;2023-04-03T02:15:07;20.40;;;18.25;;
9334;SDS011;4706;41.844;26.082;2023-04-03T02:17:33;22.95;;;19.40;;
9334;SDS011;4706;41.844;26.082;2023-04-03T02:20:00;21.48;;;18.40;;
9334;SDS011;4706;41.844;26.082;2023-04-03T02:22:25;20.20;;;17.67;;
9334;SDS011;4706;41.844;26.082;2023-04-03T02:24:51;22.55;;;17.58;;
9334;SDS011;4706;41.844;26.082;2023-04-03T02:27:17;15.15;;;13.23;;
9334;SDS011;4706;41.844;26.082;2023-04-03T02:29:42;14.93;;;10.68;;
9334;SDS011;4706;41.844;26.082;2023-04-03T02:32:08;12.73;;;7.70;;
9334;SDS011;4706;41.844;26.082;2023-04-03T02:34:33;12.35;;;7.82;;
9334;SDS011;4706;41.844;26.082;2023-04-03T02:36:59;16.23;;;10.98;;
9334;SDS011;4706;41.844;26.082;2023-04-03T02:39:24;15.27;;;9.45;;
9334;SDS011;4706;41.844;26.082;2023-04-03T02:41:51;17.20;;;10.85;;
9334;SDS011;4706;41.844;26.082;2023-04-03T02:44:16;17.25;;;9.40;;
9334;SDS011;4706;41.844;26.082;2023-04-03T02:46:42;14.93;;;9.35;;
9334;SDS011;4706;41.844;26.082;2023-04-03T02:49:08;13.07;;;8.88;;
9334;SDS011;4706;41.844;26.082;2023-04-03T02:51:34;16.25;;;9.10;;
9334;SDS011;4706;41.844;26.082;2023-04-03T02:53:59;15.07;;;9.70;;
9334;SDS011;4706;41.844;26.082;2023-04-03T02:56:25;11.65;;;7.93;;
9334;SDS011;4706;41.844;26.082;2023-04-03T02:58:51;10.57;;;8.45;;
9334;SDS011;4706;41.844;26.082;2023-04-03T03:01:17;10.13;;;8.43;;
9334;SDS011;4706;41.844;26.082;2023-04-03T03:03:43;11.57;;;8.43;;
9334;SDS011;4706;41.844;26.082;2023-04-03T03:06:09;14.00;;;7.68;;
9334;SDS011;4706;41.844;26.082;2023-04-03T03:08:37;11.60;;;7.43;;
9334;SDS011;4706;41.844;26.082;2023-04-03T03:11:03;8.63;;;6.55;;
9334;SDS011;4706;41.844;26.082;2023-04-03T03:13:29;8.98;;;6.07;;
9334;SDS011;4706;41.844;26.082;2023-04-03T03:15:55;7.18;;;5.30;;
9334;SDS011;4706;41.844;26.082;2023-04-03T03:18:21;7.47;;;5.20;;
9334;SDS011;4706;41.844;26.082;2023-04-03T03:20:50;6.28;;;5.07;;
9334;SDS011;4706;41.844;26.082;2023-04-03T03:23:20;6.55;;;4.60;;
9334;SDS011;4706;41.844;26.082;2023-04-03T03:25:48;7.40;;;4.80;;
9334;SDS011;4706;41.844;26.082;2023-04-03T03:28:13;8.63;;;5.78;;
9334;SDS011;4706;41.844;26.082;2023-04-03T03:30:39;7.75;;;6.85;;
9334;SDS011;4706;41.844;26.082;2023-04-03T03:33:05;11.02;;;7.85;;
9334;SDS011;4706;41.844;26.082;2023-04-03T03:35:30;11.85;;;10.00;;
9334;SDS011;4706;41.844;26.082;2023-04-03T03:37:56;10.40;;;8.93;;
9334;SDS011;4706;41.844;26.082;2023-04-03T03:40:21;9.38;;;8.38;;
9334;SDS011;4706;41.844;26.082;2023-04-03T03:42:47;13.68;;;12.20;;
9334;SDS011;4706;41.844;26.082;2023-04-03T03:45:13;19.38;;;17.50;;
9334;SDS011;4706;41.844;26.082;2023-04-03T03:47:39;17.00;;;15.40;;
9334;SDS011;4706;41.844;26.082;2023-04-03T03:50:05;16.80;;;15.20;;
9334;SDS011;4706;41.844;26.082;2023-04-03T03:52:31;15.18;;;13.85;;
9334;SDS011;4706;41.844;26.082;2023-04-03T03:54:56;13.35;;;11.57;;
9334;SDS011;4706;41.844;26.082;2023-04-03T03:57:22;12.50;;;11.30;;
9334;SDS011;4706;41.844;26.082;2023-04-03T03:59:47;12.43;;;11.13;;
9334;SDS011;4706;41.844;26.082;2023-04-03T04:02:14;9.65;;;8.73;;
9334;SDS011;4706;41.844;26.082;2023-04-03T04:04:40;8.20;;;7.40;;
9334;SDS011;4706;41.844;26.082;2023-04-03T04:07:05;7.40;;;6.60;;
9334;SDS011;4706;41.844;26.082;2023-04-03T04:09:31;10.93;;;9.77;;
9334;SDS011;4706;41.844;26.082;2023-04-03T04:11:56;13.55;;;9.95;;
9334;SDS011;4706;41.844;26.082;2023-04-03T04:14:22;16.65;;;10.98;;
9334;SDS011;4706;41.844;26.082;2023-04-03T04:16:48;11.82;;;9.93;;
9334;SDS011;4706;41.844;26.082;2023-04-03T04:19:14;13.13;;;9.32;;
9334;SDS011;4706;41.844;26.082;2023-04-03T04:21:40;24.67;;;10.98;;
9334;SDS011;4706;41.844;26.082;2023-04-03T04:24:06;10.70;;;7.25;;
9334;SDS011;4706;41.844;26.082;2023-04-03T04:26:33;6.20;;;5.60;;
9334;SDS011;4706;41.844;26.082;2023-04-03T04:28:58;6.43;;;5.38;;
9334;SDS011;4706;41.844;26.082;2023-04-03T04:31:24;8.15;;;6.13;;
9334;SDS011;4706;41.844;26.082;2023-04-03T04:33:49;11.30;;;6.70;;
9334;SDS011;4706;41.844;26.082;2023-04-03T04:36:15;17.40;;;9.30;;
9334;SDS011;4706;41.844;26.082;2023-04-03T04:38:41;23.40;;;14.90;;
9334;SDS011;4706;41.844;26.082;2023-04-03T04:41:07;18.33;;;11.05;;
9334;SDS011;4706;41.844;26.082;2023-04-03T04:43:32;10.48;;;7.40;;
9334;SDS011;4706;41.844;26.082;2023-04-03T04:46:05;11.23;;;7.15;;
9334;SDS011;4706;41.844;26.082;2023-04-03T04:48:32;14.18;;;6.72;;
9334;SDS011;4706;41.844;26.082;2023-04-03T04:50:58;7.82;;;6.47;;
9334;SDS011;4706;41.844;26.082;2023-04-03T04:53:23;7.47;;;6.07;;
9334;SDS011;4706;41.844;26.082;2023-04-03T04:55:49;8.73;;;5.40;;
9334;SDS011;4706;41.844;26.082;2023-04-03T04:58:15;8.63;;;6.07;;
9334;SDS011;4706;41.844;26.082;2023-04-03T05:00:40;5.97;;;5.10;;
9334;SDS011;4706;41.844;26.082;2023-04-03T05:03:06;7.15;;;5.75;;
9334;SDS011;4706;41.844;26.082;2023-04-03T05:05:31;6.45;;;5.68;;
9334;SDS011;4706;41.844;26.082;2023-04-03T05:07:56;6.85;;;5.32;;
9334;SDS011;4706;41.844;26.082;2023-04-03T05:10:22;13.48;;;9.50;;
9334;SDS011;4706;41.844;26.082;2023-04-03T05:12:48;12.13;;;9.55;;
9334;SDS011;4706;41.844;26.082;2023-04-03T05:15:13;15.27;;;10.15;;
9334;SDS011;4706;41.844;26.082;2023-04-03T05:17:39;14.63;;;9.95;;
9334;SDS011;4706;41.844;26.082;2023-04-03T05:20:05;14.85;;;9.35;;
9334;SDS011;4706;41.844;26.082;2023-04-03T05:22:31;13.48;;;9.73;;
9334;SDS011;4706;41.844;26.082;2023-04-03T05:24:56;14.43;;;8.82;;
9334;SDS011;4706;41.844;26.082;2023-04-03T05:27:22;13.68;;;9.13;;
9334;SDS011;4706;41.844;26.082;2023-04-03T05:29:49;11.18;;;9.32;;
9334;SDS011;4706;41.844;26.082;2023-04-03T05:32:15;12.40;;;9.98;;
9334;SDS011;4706;41.844;26.082;2023-04-03T05:34:41;10.82;;;9.13;;
9334;SDS011;4706;41.844;26.082;2023-04-03T05:37:06;11.85;;;8.85;;
9334;SDS011;4706;41.844;26.082;2023-04-03T05:39:32;12.70;;;8.82;;
9334;SDS011;4706;41.844;26.082;2023-04-03T05:41:58;12.93;;;9.18;;
9334;SDS011;4706;41.844;26.082;2023-04-03T05:44:24;12.60;;;10.30;;
9334;SDS011;4706;41.844;26.082;2023-04-03T05:46:49;12.68;;;9.50;;
9334;SDS011;4706;41.844;26.082;2023-04-03T05:49:15;12.10;;;8.30;;
9334;SDS011;4706;41.844;26.082;2023-04-03T05:51:40;9.10;;;8.10;;
9334;SDS011;4706;41.844;26.082;2023-04-03T05:54:28;8.20;;;7.20;;
9334;SDS011;4706;41.844;26.082;2023-04-03T05:56:53;13.10;;;10.38;;
9334;SDS011;4706;41.844;26.082;2023-04-03T05:59:19;13.70;;;10.60;;
9334;SDS011;4706;41.844;26.082;2023-04-03T06:01:45;17.40;;;12.13;;
9334;SDS011;4706;41.844;26.082;2023-04-03T06:04:12;10.95;;;9.05;;
9334;SDS011;4706;41.844;26.082;2023-04-03T06:06:51;13.18;;;9.00;;
9334;SDS011;4706;41.844;26.082;2023-04-03T06:09:19;16.15;;;10.85;;
9334;SDS011;4706;41.844;26.082;2023-04-03T06:11:46;11.60;;;7.53;;
9334;SDS011;4706;41.844;26.082;2023-04-03T06:14:12;8.70;;;6.80;;
9334;SDS011;4706;41.844;26.082;2023-04-03T06:16:38;8.70;;;6.43;;
9334;SDS011;4706;41.844;26.082;2023-04-03T06:19:04;33.10;;;8.88;;
9334;SDS011;4706;41.844;26.082;2023-04-03T06:21:31;7.65;;;6.80;;
9334;SDS011;4706;41.844;26.082;2023-04-03T06:23:57;8.65;;;7.20;;
9334;SDS011;4706;41.844;26.082;2023-04-03T06:26:23;10.35;;;6.72;;
9334;SDS011;4706;41.844;26.082;2023-04-03T06:28:48;8.77;;;6.95;;
9334;SDS011;4706;41.844;26.082;2023-04-03T06:31:14;11.25;;;7.82;;
9334;SDS011;4706;41.844;26.082;2023-04-03T06:33:40;10.45;;;9.35;;
9334;SDS011;4706;41.844;26.082;2023-04-03T06:36:05;16.90;;;8.77;;
9334;SDS011;4706;41.844;26.082;2023-04-03T06:38:33;11.48;;;8.02;;
9334;SDS011;4706;41.844;26.082;2023-04-03T06:40:59;9.27;;;8.10;;
9334;SDS011;4706;41.844;26.082;2023-04-03T06:43:25;13.50;;;8.88;;
9334;SDS011;4706;41.844;26.082;2023-04-03T06:45:51;13.05;;;8.80;;
9334;SDS011;4706;41.844;26.082;2023-04-03T06:48:16;14.35;;;9.27;;
9334;SDS011;4706;41.844;26.082;2023-04-03T06:50:42;13.82;;;10.73;;
9334;SDS011;4706;41.844;26.082;2023-04-03T06:53:08;14.02;;;11.27;;
9334;SDS011;4706;41.844;26.082;2023-04-03T06:55:34;18.17;;;11.73;;
9334;SDS011;4706;41.844;26.082;2023-04-03T06:58:01;46.28;;;16.75;;
9334;SDS011;4706;41.844;26.082;2023-04-03T07:00:26;13.10;;;10.98;;
9334;SDS011;4706;41.844;26.082;2023-04-03T07:02:52;14.23;;;11.05;;
9334;SDS011;4706;41.844;26.082;2023-04-03T07:05:18;11.68;;;10.07;;
9334;SDS011;4706;41.844;26.082;2023-04-03T07:07:44;14.88;;;11.13;;
9334;SDS011;4706;41.844;26.082;2023-04-03T07:10:09;19.05;;;13.57;;
9334;SDS011;4706;41.844;26.082;2023-04-03T07:12:36;14.60;;;11.60;;
9334;SDS011;4706;41.844;26.082;2023-04-03T07:15:03;15.88;;;13.73;;
9334;SDS011;4706;41.844;26.082;2023-04-03T07:17:30;13.23;;;11.80;;
9334;SDS011;4706;41.844;26.082;2023-04-03T07:19:56;17.05;;;15.07;;
9334;SDS011;4706;41.844;26.082;2023-04-03T07:22:22;14.43;;;12.90;;
9334;SDS011;4706;41.844;26.082;2023-04-03T07:24:47;18.30;;;13.88;;
9334;SDS011;4706;41.844;26.082;2023-04-03T07:27:13;14.48;;;11.40;;
9334;SDS011;4706;41.844;26.082;2023-04-03T07:29:38;8.35;;;7.03;;
9334;SDS011;4706;41.844;26.082;2023-04-03T07:32:04;8.13;;;7.28;;
9334;SDS011;4706;41.844;26.082;2023-04-03T07:34:31;9.30;;;8.40;;
9334;SDS011;4706;41.844;26.082;2023-04-03T07:36:57;22.80;;;17.15;;
9334;SDS011;4706;41.844;26.082;2023-04-03T07:39:23;11.68;;;9.35;;
9334;SDS011;4706;41.844;26.082;2023-04-03T07:41:49;13.10;;;9.02;;
9334;SDS011;4706;41.844;26.082;2023-04-03T07:44:15;11.05;;;7.45;;
9334;SDS011;4706;41.844;26.082;2023-04-03T07:46:41;8.43;;;7.03;;
9334;SDS011;4706;41.844;26.082;2023-04-03T07:49:07;23.02;;;9.52;;
9334;SDS011;4706;41.844;26.082;2023-04-03T07:51:33;10.52;;;6.75;;
9334;SDS011;4706;41.844;26.082;2023-04-03T07:53:58;9.68;;;6.72;;
9334;SDS011;4706;41.844;26.082;2023-04-03T07:56:24;8.68;;;7.32;;
9334;SDS011;4706;41.844;26.082;2023-04-03T07:58:50;10.52;;;7.53;;
9334;SDS011;4706;41.844;26.082;2023-04-03T08:01:15;8.55;;;6.80;;
9334;SDS011;4706;41.844;26.082;2023-04-03T08:03:41;9.27;;;6.68;;
9334;SDS011;4706;41.844;26.082;2023-04-03T08:06:07;11.45;;;7.45;;
9334;SDS011;4706;41.844;26.082;2023-04-03T08:08:34;13.43;;;8.55;;
9334;SDS011;4706;41.844;26.082;2023-04-03T08:11:00;11.65;;;10.45;;
9334;SDS011;4706;41.844;26.082;2023-04-03T08:13:28;8.65;;;7.35;;
9334;SDS011;4706;41.844;26.082;2023-04-03T08:15:55;10.82;;;8.05;;
9334;SDS011;4706;41.844;26.082;2023-04-03T08:18:22;9.02;;;8.13;;
9334;SDS011;4706;41.844;26.082;2023-04-03T08:20:50;14.60;;;9.63;;
9334;SDS011;4706;41.844;26.082;2023-04-03T08:23:17;10.18;;;9.10;;
9334;SDS011;4706;41.844;26.082;2023-04-03T08:25:43;14.25;;;12.23;;
9334;SDS011;4706;41.844;26.082;2023-04-03T08:28:10;20.98;;;15.40;;
9334;SDS011;4706;41.844;26.082;2023-04-03T08:30:38;15.93;;;13.48;;
9334;SDS011;4706;41.844;26.082;2023-04-03T08:33:05;17.98;;;14.27;;
9334;SDS011;4706;41.844;26.082;2023-04-03T08:35:31;13.85;;;11.50;;
9334;SDS011;4706;41.844;26.082;2023-04-03T08:37:56;17.05;;;14.15;;
9334;SDS011;4706;41.844;26.082;2023-04-03T08:40:23;23.00;;;17.08;;
9334;SDS011;4706;41.844;26.082;2023-04-03T08:43:22;21.92;;;18.00;;
9334;SDS011;4706;41.844;26.082;2023-04-03T08:45:51;25.30;;;21.45;;
9334;SDS011;4706;41.844;26.082;2023-04-03T08:48:53;21.15;;;16.70;;
9334;SDS011;4706;41.844;26.082;2023-04-03T08:51:19;20.10;;;17.10;;
9334;SDS011;4706;41.844;26.082;2023-04-03T08:53:53;24.05;;;17.23;;
9334;SDS011;4706;41.844;26.082;2023-04-03T08:56:21;24.00;;;17.63;;
9334;SDS011;4706;41.844;26.082;2023-04-03T08:58:55;26.42;;;18.25;;
9334;SDS011;4706;41.844;26.082;2023-04-03T09:01:36;25.50;;;16.95;;
9334;SDS011;4706;41.844;26.082;2023-04-03T09:04:12;24.55;;;17.42;;
9334;SDS011;4706;41.844;26.082;2023-04-03T09:06:39;23.42;;;16.20;;
9334;SDS011;4706;41.844;26.082;2023-04-03T09:14:12;20.15;;;15.85;;
9334;SDS011;4706;41.844;26.082;2023-04-03T09:16:59;22.65;;;16.45;;
9334;SDS011;4706;41.844;26.082;2023-04-03T09:22:20;22.92;;;18.27;;
9334;SDS011;4706;41.844;26.082;2023-04-03T09:24:50;25.40;;;17.65;;
9334;SDS011;4706;41.844;26.082;2023-04-03T09:27:22;26.73;;;17.77;;
9334;SDS011;4706;41.844;26.082;2023-04-03T09:29:48;22.75;;;17.35;;
9334;SDS011;4706;41.844;26.082;2023-04-03T09:32:19;26.27;;;18.40;;
9334;SDS011;4706;41.844;26.082;2023-04-03T09:34:50;20.15;;;17.00;;
9334;SDS011;4706;41.844;26.082;2023-04-03T09:37:32;24.35;;;20.00;;
9334;SDS011;4706;41.844;26.082;2023-04-03T09:39:58;25.63;;;18.95;;
9334;SDS011;4706;41.844;26.082;2023-04-03T09:42:24;28.85;;;21.30;;
9334;SDS011;4706;41.844;26.082;2023-04-03T09:44:57;36.22;;;31.25;;
9334;SDS011;4706;41.844;26.082;2023-04-03T09:47:32;34.95;;;30.42;;
9334;SDS011;4706;41.844;26.082;2023-04-03T09:52:38;31.65;;;23.75;;
9334;SDS011;4706;41.844;26.082;2023-04-03T09:57:43;29.88;;;22.42;;
9334;SDS011;4706;41.844;26.082;2023-04-03T10:00:21;32.08;;;21.95;;
9334;SDS011;4706;41.844;26.082;2023-04-03T10:02:59;31.85;;;22.15;;
9334;SDS011;4706;41.844;26.082;2023-04-03T10:10:36;30.80;;;21.98;;
9334;SDS011;4706;41.844;26.082;2023-04-03T10:13:06;29.58;;;19.80;;
9334;SDS011;4706;41.844;26.082;2023-04-03T10:16:23;29.00;;;20.65;;
9334;SDS011;4706;41.844;26.082;2023-04-03T10:18:42;30.38;;;22.55;;
9334;SDS011;4706;41.844;26.082;2023-04-03T10:21:15;28.90;;;21.88;;
9334;SDS011;4706;41.844;26.082;2023-04-03T10:23:55;29.25;;;22.10;;
9334;SDS011;4706;41.844;26.082;2023-04-03T10:29:15;25.35;;;19.23;;
9334;SDS011;4706;41.844;26.082;2023-04-03T10:32:08;30.33;;;21.65;;
9334;SDS011;4706;41.844;26.082;2023-04-03T10:34:42;30.85;;;21.70;;
9334;SDS011;4706;41.844;26.082;2023-04-03T10:37:13;32.80;;;23.98;;
9334;SDS011;4706;41.844;26.082;2023-04-03T10:39:49;29.45;;;20.65;;
9334;SDS011;4706;41.844;26.082;2023-04-03T10:42:32;29.42;;;22.30;;
9334;SDS011;4706;41.844;26.082;2023-04-03T10:45:08;30.10;;;21.80;;
9334;SDS011;4706;41.844;26.082;2023-04-03T10:50:29;32.53;;;23.30;;
9334;SDS011;4706;41.844;26.082;2023-04-03T10:55:44;30.73;;;21.83;;
9334;SDS011;4706;41.844;26.082;2023-04-03T10:59:02;30.08;;;21.85;;
9334;SDS011;4706;41.844;26.082;2023-04-03T11:01:33;28.67;;;21.48;;
9334;SDS011;4706;41.844;26.082;2023-04-03T11:04:04;29.98;;;21.98;;
9334;SDS011;4706;41.844;26.082;2023-04-03T11:06:35;28.67;;;20.40;;
9334;SDS011;4706;41.844;26.082;2023-04-03T11:11:38;30.50;;;21.95;;
9334;SDS011;4706;41.844;26.082;2023-04-03T11:14:10;27.90;;;21.55;;
9334;SDS011;4706;41.844;26.082;2023-04-03T11:16:43;30.65;;;22.67;;
9334;SDS011;4706;41.844;26.082;2023-04-03T11:22:24;26.42;;;21.27;;
9334;SDS011;4706;41.844;26.082;2023-04-03T11:27:40;19.88;;;15.35;;
9334;SDS011;4706;41.844;26.082;2023-04-03T11:30:12;22.17;;;16.58;;
9334;SDS011;4706;41.844;26.082;2023-04-03T11:35:12;19.63;;;15.25;;
9334;SDS011;4706;41.844;26.082;2023-04-03T11:37:39;21.42;;;16.63;;
9334;SDS011;4706;41.844;26.082;2023-04-03T11:43:24;16.25;;;14.02;;
9334;SDS011;4706;41.844;26.082;2023-04-03T11:50:44;19.25;;;14.50;;
9334;SDS011;4706;41.844;26.082;2023-04-03T12:00:52;22.67;;;15.02;;
9334;SDS011;4706;41.844;26.082;2023-04-03T12:05:57;19.48;;;15.73;;
9334;SDS011;4706;41.844;26.082;2023-04-03T12:09:01;17.67;;;12.38;;
9334;SDS011;4706;41.844;26.082;2023-04-03T12:11:30;15.32;;;13.25;;
9334;SDS011;4706;41.844;26.082;2023-04-03T12:26:48;19.70;;;17.17;;
9334;SDS011;4706;41.844;26.082;2023-04-03T12:29:20;18.00;;;14.95;;
9334;SDS011;4706;41.844;26.082;2023-04-03T12:37:58;21.35;;;14.65;;
9334;SDS011;4706;41.844;26.082;2023-04-03T12:40:50;17.75;;;15.23;;
9334;SDS011;4706;41.844;26.082;2023-04-03T12:46:14;15.65;;;11.95;;
9334;SDS011;4706;41.844;26.082;2023-04-03T12:48:47;13.10;;;11.02;;
9334;SDS011;4706;41.844;26.082;2023-04-03T12:51:26;11.27;;;8.57;;
9334;SDS011;4706;41.844;26.082;2023-04-03T12:57:10;7.82;;;6.18;;
9334;SDS011;4706;41.844;26.082;2023-04-03T12:59:36;8.02;;;6.38;;
9334;SDS011;4706;41.844;26.082;2023-04-03T13:02:07;8.23;;;5.82;;
9334;SDS011;4706;41.844;26.082;2023-04-03T13:04:46;6.78;;;5.22;;
9334;SDS011;4706;41.844;26.082;2023-04-03T13:07:19;10.02;;;6.00;;
9334;SDS011;4706;41.844;26.082;2023-04-03T13:09:54;7.70;;;6.25;;
9334;SDS011;4706;41.844;26.082;2023-04-03T13:12:21;9.07;;;5.80;;
9334;SDS011;4706;41.844;26.082;2023-04-03T13:14:54;8.75;;;5.75;;
9334;SDS011;4706;41.844;26.082;2023-04-03T13:17:26;8.40;;;6.10;;
9334;SDS011;4706;41.844;26.082;2023-04-03T13:19:53;6.70;;;5.97;;
9334;SDS011;4706;41.844;26.082;2023-04-03T13:25:34;6.68;;;5.10;;
9334;SDS011;4706;41.844;26.082;2023-04-03T13:28:05;10.93;;;6.00;;
9334;SDS011;4706;41.844;26.082;2023-04-03T13:30:37;7.53;;;4.97;;
9334;SDS011;4706;41.844;26.082;2023-04-03T13:33:04;7.60;;;5.50;;
9334;SDS011;4706;41.844;26.082;2023-04-03T13:35:44;9.48;;;6.88;;
9334;SDS011;4706;41.844;26.082;2023-04-03T13:40:52;7.35;;;5.65;;
9334;SDS011;4706;41.844;26.082;2023-04-03T13:43:33;12.02;;;7.63;;
9334;SDS011;4706;41.844;26.082;2023-04-03T13:48:56;7.20;;;5.55;;
9334;SDS011;4706;41.844;26.082;2023-04-03T13:51:23;9.60;;;6.85;;
9334;SDS011;4706;41.844;26.082;2023-04-03T13:56:36;11.30;;;8.52;;
9334;SDS011;4706;41.844;26.082;2023-04-03T14:04:16;10.43;;;6.50;;
9334;SDS011;4706;41.844;26.082;2023-04-03T14:06:47;7.95;;;6.22;;
9334;SDS011;4706;41.844;26.082;2023-04-03T14:09:14;8.30;;;5.43;;
9334;SDS011;4706;41.844;26.082;2023-04-03T14:11:42;8.73;;;4.88;;
9334;SDS011;4706;41.844;26.082;2023-04-03T14:14:18;8.40;;;6.00;;
9334;SDS011;4706;41.844;26.082;2023-04-03T14:16:50;8.80;;;5.97;;
9334;SDS011;4706;41.844;26.082;2023-04-03T14:19:28;9.68;;;5.57;;
9334;SDS011;4706;41.844;26.082;2023-04-03T14:21:55;8.52;;;5.03;;
9334;SDS011;4706;41.844;26.082;2023-04-03T14:24:22;6.95;;;5.00;;
9334;SDS011;4706;41.844;26.082;2023-04-03T14:26:51;7.32;;;4.85;;
9334;SDS011;4706;41.844;26.082;2023-04-03T14:29:19;7.72;;;4.90;;
9334;SDS011;4706;41.844;26.082;2023-04-03T14:31:46;11.45;;;6.05;;
9334;SDS011;4706;41.844;26.082;2023-04-03T14:34:11;5.72;;;4.40;;
9334;SDS011;4706;41.844;26.082;2023-04-03T14:36:38;7.32;;;4.57;;
9334;SDS011;4706;41.844;26.082;2023-04-03T14:39:06;5.72;;;4.43;;
9334;SDS011;4706;41.844;26.082;2023-04-03T14:41:35;7.80;;;5.03;;
9334;SDS011;4706;41.844;26.082;2023-04-03T14:44:01;7.68;;;5.18;;
9334;SDS011;4706;41.844;26.082;2023-04-03T14:46:31;10.00;;;6.32;;
9334;SDS011;4706;41.844;26.082;2023-04-03T14:49:00;8.50;;;6.43;;
9334;SDS011;4706;41.844;26.082;2023-04-03T14:51:25;5.18;;;4.05;;
9334;SDS011;4706;41.844;26.082;2023-04-03T14:53:51;8.98;;;4.63;;
9334;SDS011;4706;41.844;26.082;2023-04-03T14:56:18;7.80;;;4.90;;
9334;SDS011;4706;41.844;26.082;2023-04-03T14:58:48;11.70;;;5.55;;
9334;SDS011;4706;41.844;26.082;2023-04-03T15:01:19;10.50;;;7.07;;
9334;SDS011;4706;41.844;26.082;2023-04-03T15:03:44;9.60;;;6.15;;
9334;SDS011;4706;41.844;26.082;2023-04-03T15:06:10;10.77;;;5.78;;
9334;SDS011;4706;41.844;26.082;2023-04-03T15:08:37;8.50;;;5.97;;
9334;SDS011;4706;41.844;26.082;2023-04-03T15:11:03;9.43;;;7.82;;
9334;SDS011;4706;41.844;26.082;2023-04-03T15:13:29;7.53;;;6.70;;
9334;SDS011;4706;41.844;26.082;2023-04-03T15:15:55;9.85;;;5.75;;
9334;SDS011;4706;41.844;26.082;2023-04-03T15:18:30;7.13;;;5.32;;
9334;SDS011;4706;41.844;26.082;2023-04-03T15:21:01;9.27;;;6.32;;
9334;SDS011;4706;41.844;26.082;2023-04-03T15:23:26;10.82;;;6.28;;
9334;SDS011;4706;41.844;26.082;2023-04-03T15:25:53;9.88;;;7.15;;
9334;SDS011;4706;41.844;26.082;2023-04-03T15:30:59;12.63;;;8.00;;
9334;SDS011;4706;41.844;26.082;2023-04-03T15:33:25;14.63;;;8.32;;
9334;SDS011;4706;41.844;26.082;2023-04-03T15:35:51;10.50;;;8.25;;
9334;SDS011;4706;41.844;26.082;2023-04-03T15:38:16;14.07;;;8.60;;
9334;SDS011;4706;41.844;26.082;2023-04-03T15:40:42;11.70;;;5.90;;
9334;SDS011;4706;41.844;26.082;2023-04-03T15:43:09;52.70;;;37.28;;
9334;SDS011;4706;41.844;26.082;2023-04-03T15:45:35;19.77;;;14.63;;
9334;SDS011;4706;41.844;26.082;2023-04-03T15:48:02;11.52;;;9.05;;
9334;SDS011;4706;41.844;26.082;2023-04-03T15:50:29;14.52;;;10.82;;
9334;SDS011;4706;41.844;26.082;2023-04-03T15:52:55;75.50;;;41.17;;
9334;SDS011;4706;41.844;26.082;2023-04-03T15:55:23;50.45;;;28.92;;
9334;SDS011;4706;41.844;26.082;2023-04-03T15:57:50;13.55;;;10.27;;
9334;SDS011;4706;41.844;26.082;2023-04-03T16:00:16;8.95;;;6.55;;
9334;SDS011;4706;41.844;26.082;2023-04-03T16:02:42;25.58;;;19.92;;
9334;SDS011;4706;41.844;26.082;2023-04-03T16:05:10;16.05;;;12.65;;
9334;SDS011;4706;41.844;26.082;2023-04-03T16:07:37;18.45;;;14.30;;
9334;SDS011;4706;41.844;26.082;2023-04-03T16:10:04;24.90;;;21.48;;
9334;SDS011;4706;41.844;26.082;2023-04-03T16:12:31;14.55;;;11.57;;
9334;SDS011;4706;41.844;26.082;2023-04-03T16:14:56;11.50;;;7.70;;
9334;SDS011;4706;41.844;26.082;2023-04-03T16:17:22;12.07;;;8.13;;
9334;SDS011;4706;41.844;26.082;2023-04-03T16:19:47;8.02;;;5.55;;
9334;SDS011;4706;41.844;26.082;2023-04-03T16:22:13;12.45;;;7.85;;
9334;SDS011;4706;41.844;26.082;2023-04-03T16:24:39;16.23;;;11.45;;
9334;SDS011;4706;41.844;26.082;2023-04-03T16:27:04;10.68;;;8.23;;
9334;SDS011;4706;41.844;26.082;2023-04-03T16:29:30;13.00;;;10.23;;
9334;SDS011;4706;41.844;26.082;2023-04-03T16:31:56;16.70;;;11.75;;
9334;SDS011;4706;41.844;26.082;2023-04-03T16:34:23;9.45;;;7.25;;
9334;SDS011;4706;41.844;26.082;2023-04-03T16:36:50;18.23;;;14.15;;
9334;SDS011;4706;41.844;26.082;2023-04-03T16:39:17;22.27;;;14.43;;
9334;SDS011;4706;41.844;26.082;2023-04-03T16:41:43;11.93;;;9.20;;